Decatur, AL (35601)

10:06 AM CDT on September 01, 2015 (GMT -0500)
Westmeade | | Change Station
CLOSE
Current Station
Personal Weather Station
Location: Decatur, AL
Elevation: 614 ft
Nearby Weather Stations

Elev 614 ft 34.58 °N, 87.02 °W | Updated 7 minutes ago

Clear
Clear
84.2 °F
Feels Like 90 °F
N
2.7
Wind Variable Wind from WNW

Today
High -- | Low -- °F
--% Chance of Precip.
Yesterday
High -- | Low -- °F
Precip. -- in
6:20 AM 7:14 PM
Waning Gibbous, 88% visible
Pressure 30.14 in
Visibility 10.0 miles
Clouds Clear
Heat Index 90 °F
Dew Point 72 °F
Humidity 68%
Rainfall 0.00 in
Snow Depth Not available.
UV 6 out of 12
Pollen 9.50 out of 12
Air Quality Not available.
Flu Activity Not available.
METAR KDCU 011453Z AUTO 00000KT 10SM CLR 27/22 A3016 RMK AO2 SLP205 T02720217 51005 $
Pressure 30.14 in
Visibility 10.0 miles
Clouds Clear
Heat Index 90 °F
Dew Point 72 °F
Humidity 68%
Rainfall 0.00 in
Snow Depth Not available.
UV 6 out of 12
Pollen 9.50 out of 12
Air Quality Not available.
Flu Activity Not available.
METAR KDCU 011453Z AUTO 00000KT 10SM CLR 27/22 A3016 RMK AO2 SLP205 T02720217 51005 $

10-Day Weather Forecast

×

Almanac

Astronomy

Sep. 01, 2015 Rise Set
Actual Time
Civil Twilight
Nautical Twilight
Astronomical Twilight
Moon
Length of Visible Light
Length of Day
Tomorrow will be .
, % of the Moon is Illuminated

Today's Extremes

State Highs State Lows

Community

WunderPhotos

Upload Photos

1,851,520 photos uploaded!

WunderBlogs® & News

Nearby

Air Quality

  Air Quality AQ Index Pollutant
Not available.

Snow Depth

Station Depth Elevation

Earthquake Activity

City Distance Mag. Time & Date
Minimum magnitude displayed is 2.5.

Coastal Water Temperatures

Place Temperature

Stations

Nearby Weather Stations

Station Location Temp. Windchill Dew Point Humidity Wind Precip. Elev Updated Type